Terminal Aerodrome Forecast
Issued by NWS

Home | Current Version | Previous Version | Text Only | Print | Product List | Glossary On
Versions: 1 2 3 4 5 6 7 8 9 10 11 12 13 14 15 16
273
FTUS42 KMLB 240308 AAA
TAFFPR
TAF AMD
KFPR 240308Z 2403/2424 30011KT P6SM SKC
      TEMPO 2403/2405 29014G22KT BKN040
     FM240600 28011KT P6SM SKC=

USA.gov is the U.S. government's official web portal to all federal, state and local government web resources and services.